Startpagina
METAR-TAF:

METAR-TAF

Vliegvelden :

Arnhem, Nederland

Vliegbasis Deelen

breedte: 52-04N, lengte: 005-53E, hoogte: 48 m

Actueel weer

Dit bericht is 27 minuten geleden gemaakt, om 06:25 UTC
Wind 8 kt uit het noordwesten, variërend tussen het westen en het noordnoordoosten
Temperatuur 16°C
Vochtigheid 88%
Druk 1010 hPa
Zicht 10 km of meer
Weinig wolken op 1600 ft
Gebroken wolken op 18000 ft

METAR: EHDL 250625Z AUTO 32008KT 280V030 9999 FEW016 BKN180 16/14 Q1010 BLU

Tijdstip: 08:52 (06:52 UTC)


TAF: ontbreekt

Waarnemingen en weersverwachtingen van meer dan 4000 vliegvelden (METAR en TAF).

De beschikbare stations zijn de gele en rode punten op de kaart.

Ga met uw muis naar het station om de naam te zien.

Klik dan om waarnemingen en weersverwachtingen te zien.

kaart wijzigen: klik op de groene knoppen met een zwart kruis om in te zoomen, op de groene knop met een streepje om uit te zoomen of op de groene pijlen voor aangrenzende kaarten.


METAR-TAF: